createdAt,value
2017-05-22T00:01:52.836Z,2.90
2017-05-22T00:04:21.368Z,2.68
2017-05-22T00:06:49.913Z,2.65
2017-05-22T00:09:18.422Z,2.32
2017-05-22T00:11:46.931Z,2.70
2017-05-22T00:14:15.466Z,4.00
2017-05-22T00:16:43.966Z,3.53
2017-05-22T00:19:12.466Z,3.07
2017-05-22T00:21:41.008Z,2.73
2017-05-22T00:24:09.509Z,4.38
2017-05-22T00:26:38.012Z,2.43
2017-05-22T00:29:06.565Z,2.47
2017-05-22T00:31:35.073Z,2.35
2017-05-22T00:34:03.573Z,2.70
2017-05-22T00:36:32.128Z,2.10
2017-05-22T00:39:00.626Z,2.60
2017-05-22T00:41:29.126Z,3.68
2017-05-22T00:43:57.665Z,3.17
2017-05-22T00:46:26.168Z,3.38
2017-05-22T00:48:54.676Z,5.72
2017-05-22T00:51:23.245Z,2.62
2017-05-22T00:53:51.744Z,1.75
2017-05-22T00:56:20.248Z,2.77
2017-05-22T00:58:48.787Z,2.97
2017-05-22T01:01:17.309Z,3.75
2017-05-22T01:03:45.812Z,3.10
2017-05-22T01:06:14.357Z,2.38
2017-05-22T01:08:42.861Z,2.88
2017-05-22T01:11:11.365Z,2.37
2017-05-22T01:13:39.909Z,4.12
2017-05-22T01:16:08.413Z,4.78
2017-05-22T01:18:36.916Z,3.75
2017-05-22T01:21:05.455Z,2.48
2017-05-22T01:23:33.960Z,2.40
2017-05-22T01:26:02.457Z,4.93
2017-05-22T01:28:30.996Z,2.53
2017-05-22T01:30:59.510Z,3.00
2017-05-22T01:33:28.024Z,2.42
2017-05-22T01:35:56.589Z,4.30
2017-05-22T01:38:25.119Z,3.23
2017-05-22T01:40:53.629Z,3.17
2017-05-22T01:43:22.188Z,3.23
2017-05-22T01:45:50.686Z,5.28
2017-05-22T01:48:19.210Z,3.17
2017-05-22T01:50:47.751Z,3.12
2017-05-22T01:53:16.251Z,2.75
2017-05-22T01:55:44.753Z,4.98
2017-05-22T01:58:13.296Z,2.85
2017-05-22T02:00:41.798Z,2.50
2017-05-22T02:03:10.293Z,3.83
2017-05-22T02:05:38.868Z,3.73
2017-05-22T02:08:07.372Z,4.50
2017-05-22T02:10:35.873Z,2.82
2017-05-22T02:13:04.409Z,2.95
2017-05-22T02:15:32.908Z,5.35
2017-05-22T02:18:01.409Z,2.45
2017-05-22T02:20:30.242Z,3.07
2017-05-22T02:22:58.745Z,2.65
2017-05-22T02:25:27.255Z,2.87
2017-05-22T02:27:55.800Z,3.10
2017-05-22T02:30:24.412Z,3.00
2017-05-22T02:32:52.922Z,3.42
2017-05-22T02:35:21.463Z,4.03
2017-05-22T02:37:49.968Z,3.50
2017-05-22T02:40:18.477Z,4.75
2017-05-22T02:42:47.017Z,3.20
2017-05-22T02:45:15.511Z,7.57
2017-05-22T02:47:44.014Z,3.27
2017-05-22T02:50:12.559Z,5.60
2017-05-22T02:52:41.072Z,5.37
2017-05-22T02:55:09.573Z,4.35
2017-05-22T02:57:38.115Z,2.42
2017-05-22T03:00:06.615Z,3.43
2017-05-22T03:02:35.117Z,3.02
2017-05-22T03:05:03.665Z,4.07
2017-05-22T03:07:32.188Z,2.82
2017-05-22T03:10:00.693Z,3.30
2017-05-22T03:12:29.236Z,3.03
2017-05-22T03:14:57.741Z,2.88
2017-05-22T03:17:26.244Z,5.73
2017-05-22T03:19:54.783Z,3.38
2017-05-22T03:22:23.279Z,3.67
2017-05-22T03:24:51.784Z,3.57
2017-05-22T03:27:20.323Z,3.62
2017-05-22T03:29:48.823Z,5.43
2017-05-22T03:32:17.320Z,4.00
2017-05-22T03:34:45.883Z,9.30
2017-05-22T03:37:14.393Z,3.17
2017-05-22T03:39:42.897Z,2.75
2017-05-22T03:42:11.435Z,3.57
2017-05-22T03:44:39.935Z,3.45
2017-05-22T03:47:08.440Z,3.60
2017-05-22T03:49:37.002Z,5.33
2017-05-22T03:52:05.506Z,6.17
2017-05-22T03:54:34.033Z,4.27
2017-05-22T03:57:02.580Z,7.58
2017-05-22T03:59:31.076Z,4.35
2017-05-22T04:01:59.586Z,3.53
2017-05-22T04:04:28.167Z,3.27
2017-05-22T04:06:56.659Z,4.55
2017-05-22T04:09:25.159Z,7.45
2017-05-22T04:11:53.729Z,4.35
2017-05-22T04:14:22.236Z,5.92
2017-05-22T04:16:50.748Z,3.72
2017-05-22T04:19:19.290Z,3.42
2017-05-22T04:21:47.787Z,3.83
2017-05-22T04:24:16.352Z,3.28
2017-05-22T04:26:44.893Z,4.02
2017-05-22T04:29:13.391Z,3.48
2017-05-22T04:31:41.887Z,3.55
2017-05-22T04:34:10.428Z,5.95
2017-05-22T04:36:38.933Z,3.68
2017-05-22T04:39:07.427Z,5.40
2017-05-22T04:41:35.970Z,4.88
2017-05-22T04:44:04.467Z,4.50
2017-05-22T04:46:32.969Z,6.23
2017-05-22T04:49:01.511Z,4.30
2017-05-22T04:51:30.050Z,8.07
2017-05-22T04:53:58.560Z,4.35
2017-05-22T04:56:26.341Z,4.67
2017-05-22T04:58:54.838Z,5.62
2017-05-22T05:01:23.340Z,6.83
2017-05-22T05:03:51.883Z,4.05
2017-05-22T05:06:20.389Z,5.12
2017-05-22T05:08:48.894Z,5.67
2017-05-22T05:11:18.132Z,6.95
2017-05-22T05:13:46.629Z,4.23
2017-05-22T05:16:16.029Z,8.73
2017-05-22T05:18:44.580Z,3.98
2017-05-22T05:21:13.081Z,3.77
2017-05-22T05:23:41.583Z,4.00
2017-05-22T05:26:10.154Z,5.15
2017-05-22T05:28:38.692Z,3.78
2017-05-22T05:31:07.203Z,5.00
2017-05-22T05:33:35.745Z,4.50
2017-05-22T05:36:04.256Z,6.30
2017-05-22T05:38:32.752Z,3.73
2017-05-22T05:41:01.291Z,7.77
2017-05-22T05:43:29.792Z,8.37
2017-05-22T05:45:58.319Z,9.57
2017-05-22T05:48:26.860Z,7.35
2017-05-22T05:50:55.364Z,5.55
2017-05-22T05:53:23.863Z,4.73
2017-05-22T05:55:52.398Z,4.95
2017-05-22T05:58:20.908Z,4.57
2017-05-22T06:00:49.412Z,7.65
2017-05-22T06:03:17.955Z,5.70
2017-05-22T06:05:46.456Z,8.47
2017-05-22T06:08:14.954Z,7.78
2017-05-22T06:10:42.763Z,6.23
2017-05-22T06:13:11.265Z,8.80
2017-05-22T06:15:39.767Z,6.17
2017-05-22T06:18:08.305Z,5.90
2017-05-22T06:20:36.810Z,4.30
2017-05-22T06:23:05.320Z,4.82
2017-05-22T06:25:33.913Z,6.05
2017-05-22T06:28:02.416Z,4.57
2017-05-22T06:30:30.912Z,6.70
2017-05-22T06:32:59.452Z,5.92
2017-05-22T06:35:27.956Z,4.53
2017-05-22T06:37:56.460Z,4.08
2017-05-22T06:40:25.028Z,4.67
2017-05-22T06:42:53.529Z,6.72
2017-05-22T06:45:22.032Z,3.15
2017-05-22T06:47:50.754Z,4.12
2017-05-22T06:50:19.257Z,3.12
2017-05-22T06:52:47.765Z,2.75
2017-05-22T06:55:16.307Z,5.15
2017-05-22T06:57:44.811Z,3.58
2017-05-22T07:00:13.313Z,3.27
2017-05-22T07:02:41.854Z,3.70
2017-05-22T07:05:10.356Z,4.30
2017-05-22T07:07:38.857Z,7.40
2017-05-22T07:10:07.401Z,5.62
2017-05-22T07:12:35.903Z,3.68
2017-05-22T07:15:04.408Z,3.50
2017-05-22T07:17:32.952Z,3.97
2017-05-22T07:20:01.465Z,4.27
2017-05-22T07:22:29.961Z,3.95
2017-05-22T07:24:58.505Z,4.23
2017-05-22T07:27:27.006Z,3.38
2017-05-22T07:29:55.499Z,4.03
2017-05-22T07:32:24.060Z,5.12
2017-05-22T07:34:52.559Z,4.10
2017-05-22T07:37:21.060Z,5.63
2017-05-22T07:39:49.627Z,4.00
2017-05-22T07:42:18.139Z,4.62
2017-05-22T07:44:46.641Z,4.28
2017-05-22T07:47:15.175Z,9.10
2017-05-22T07:49:43.677Z,5.63
2017-05-22T07:52:12.176Z,3.98
2017-05-22T07:54:40.722Z,3.33
2017-05-22T07:57:09.223Z,7.63
2017-05-22T07:59:37.715Z,6.05
2017-05-22T08:02:06.255Z,3.92
2017-05-22T08:04:34.757Z,4.28
2017-05-22T08:07:03.260Z,2.52
2017-05-22T08:09:31.796Z,3.15
2017-05-22T08:12:00.305Z,2.42
2017-05-22T08:14:28.811Z,3.82
2017-05-22T08:16:57.364Z,3.88
2017-05-22T08:19:25.864Z,3.97
2017-05-22T08:21:54.372Z,3.25
2017-05-22T08:24:22.910Z,3.13
2017-05-22T08:26:51.421Z,4.03
2017-05-22T08:29:19.924Z,4.80
2017-05-22T08:31:48.467Z,4.65
2017-05-22T08:34:17.004Z,1.98
2017-05-22T08:36:45.507Z,5.17
2017-05-22T08:39:14.057Z,3.43
2017-05-22T08:41:42.556Z,1.45
2017-05-22T08:44:11.057Z,4.05
2017-05-22T08:46:39.596Z,2.23
2017-05-22T08:49:08.100Z,1.62
2017-05-22T08:51:36.604Z,3.02
2017-05-22T08:54:05.409Z,1.57
2017-05-22T08:56:33.913Z,3.92
2017-05-22T08:59:02.419Z,2.30
2017-05-22T09:01:30.960Z,2.67
2017-05-22T09:03:59.463Z,1.35
2017-05-22T09:06:27.960Z,2.98
2017-05-22T09:08:56.503Z,5.95
2017-05-22T09:11:24.998Z,3.48
2017-05-22T09:13:53.507Z,7.88
2017-05-22T09:16:22.048Z,2.05
2017-05-22T09:18:50.542Z,1.63
2017-05-22T09:21:19.049Z,10.18
2017-05-22T09:23:47.613Z,1.52
2017-05-22T09:26:16.117Z,2.33
2017-05-22T09:28:44.621Z,2.25
2017-05-22T09:31:13.400Z,1.98
2017-05-22T09:33:41.904Z,1.02
2017-05-22T09:36:10.403Z,2.17
2017-05-22T09:38:38.953Z,1.48
2017-05-22T09:41:07.458Z,2.47
2017-05-22T09:43:35.971Z,2.40
2017-05-22T09:46:04.517Z,2.98
2017-05-22T09:48:33.030Z,5.82
2017-05-22T09:51:01.535Z,3.98
2017-05-22T09:53:30.072Z,4.93
2017-05-22T09:55:58.573Z,3.00
2017-05-22T09:58:27.076Z,2.08
2017-05-22T10:00:55.620Z,3.93
2017-05-22T10:03:24.119Z,1.52
2017-05-22T10:05:52.619Z,12.18
2017-05-22T10:08:20.393Z,3.58
2017-05-22T10:10:48.900Z,3.37
2017-05-22T10:13:17.407Z,5.03
2017-05-22T10:15:45.953Z,1.37
2017-05-22T10:18:14.452Z,4.13
2017-05-22T10:20:42.957Z,2.70
2017-05-22T10:23:11.497Z,5.68
2017-05-22T10:25:40.004Z,1.43
2017-05-22T10:28:08.516Z,4.50
2017-05-22T10:30:37.056Z,1.93
2017-05-22T10:33:05.555Z,2.72
2017-05-22T10:35:34.091Z,3.05
2017-05-22T10:38:02.628Z,1.63
2017-05-22T10:40:31.133Z,1.42
2017-05-22T10:42:59.635Z,3.23
2017-05-22T10:45:28.175Z,1.97
2017-05-22T10:47:56.677Z,1.65
2017-05-22T10:50:25.179Z,1.67
2017-05-22T10:52:53.724Z,1.67
2017-05-22T10:55:22.279Z,5.33
2017-05-22T10:57:50.781Z,3.62
2017-05-22T11:00:19.332Z,3.62
2017-05-22T11:02:47.840Z,2.72
2017-05-22T11:05:16.563Z,1.95
2017-05-22T11:07:45.112Z,1.92
2017-05-22T11:10:13.608Z,4.82
2017-05-22T11:12:42.110Z,3.48
2017-05-22T11:15:10.661Z,2.62
2017-05-22T11:17:39.165Z,2.25
2017-05-22T11:20:07.674Z,2.82
2017-05-22T11:22:36.208Z,3.47
2017-05-22T11:25:04.709Z,2.60
2017-05-22T11:27:33.211Z,2.45
2017-05-22T11:30:01.784Z,2.92
2017-05-22T11:32:30.287Z,3.98
2017-05-22T11:34:58.796Z,3.23
2017-05-22T11:37:27.340Z,4.78
2017-05-22T11:39:55.851Z,2.58
2017-05-22T11:42:24.365Z,2.82
2017-05-22T11:44:52.904Z,2.40
2017-05-22T11:47:21.412Z,4.70
2017-05-22T11:49:49.939Z,4.37
2017-05-22T11:52:18.484Z,4.00
2017-05-22T11:54:46.984Z,5.53
2017-05-22T11:57:15.483Z,4.72
2017-05-22T11:59:44.024Z,3.80
2017-05-22T12:02:12.520Z,5.00
2017-05-22T12:04:41.024Z,2.50
2017-05-22T12:07:09.574Z,2.88
2017-05-22T12:09:38.075Z,4.70
2017-05-22T12:12:06.570Z,3.80
2017-05-22T12:14:35.110Z,3.22
2017-05-22T12:17:03.635Z,2.22
2017-05-22T12:19:32.136Z,4.15
2017-05-22T12:22:00.680Z,2.27
2017-05-22T12:24:29.197Z,2.67
2017-05-22T12:26:57.703Z,4.45
2017-05-22T12:29:26.248Z,6.52
2017-05-22T12:31:54.757Z,3.75
2017-05-22T12:34:23.488Z,5.17
2017-05-22T12:36:52.026Z,6.17
2017-05-22T12:39:20.524Z,3.75
2017-05-22T12:41:49.027Z,11.73
2017-05-22T12:44:17.582Z,3.00
2017-05-22T12:46:46.087Z,4.55
2017-05-22T12:49:14.598Z,7.02
2017-05-22T12:51:43.153Z,5.55
2017-05-22T12:54:11.656Z,2.52
2017-05-22T12:56:40.155Z,2.28
2017-05-22T12:59:08.729Z,3.42
2017-05-22T13:01:37.231Z,3.82
2017-05-22T13:04:05.731Z,3.92
2017-05-22T13:06:34.275Z,3.25
2017-05-22T13:09:02.779Z,5.77
2017-05-22T13:11:31.279Z,4.60
2017-05-22T13:13:59.839Z,3.40
2017-05-22T13:16:28.335Z,7.10
2017-05-22T13:18:56.840Z,3.20
2017-05-22T13:21:25.380Z,1.88
2017-05-22T13:23:53.875Z,5.55
2017-05-22T13:26:22.385Z,2.60
2017-05-22T13:28:50.926Z,4.60
2017-05-22T13:31:19.429Z,5.17
2017-05-22T13:33:47.950Z,3.13
2017-05-22T13:36:16.491Z,3.03
2017-05-22T13:38:44.989Z,3.18
2017-05-22T13:41:13.492Z,2.78
2017-05-22T13:43:42.029Z,3.95
2017-05-22T13:46:10.524Z,5.52
2017-05-22T13:48:39.036Z,4.57
2017-05-22T13:51:07.576Z,4.38
2017-05-22T13:53:36.084Z,3.18
2017-05-22T13:56:04.583Z,3.87
2017-05-22T13:58:33.124Z,3.88
2017-05-22T14:01:01.628Z,2.87
2017-05-22T14:03:30.133Z,3.48
2017-05-22T14:05:58.676Z,2.80
2017-05-22T14:08:27.177Z,3.67
2017-05-22T14:10:55.683Z,4.38
2017-05-22T14:13:24.222Z,3.57
2017-05-22T14:15:52.728Z,2.30
2017-05-22T14:18:21.227Z,2.72
2017-05-22T14:20:49.772Z,1.92
2017-05-22T14:23:18.276Z,7.58
2017-05-22T14:25:46.771Z,3.98
2017-05-22T14:28:15.312Z,3.13
2017-05-22T14:30:43.812Z,3.63
2017-05-22T14:33:12.361Z,4.40
2017-05-22T14:35:40.903Z,5.02
2017-05-22T14:38:09.416Z,3.60
2017-05-22T14:40:37.927Z,2.57
2017-05-22T14:43:06.487Z,2.78
2017-05-22T14:45:35.002Z,3.62
2017-05-22T14:48:03.504Z,3.38
2017-05-22T14:50:32.054Z,3.35
2017-05-22T14:53:00.575Z,4.27
2017-05-22T14:55:29.073Z,2.92
2017-05-22T14:57:57.624Z,7.48
2017-05-22T15:00:26.120Z,5.23
2017-05-22T15:02:54.620Z,2.87
2017-05-22T15:05:23.166Z,2.75
2017-05-22T15:07:51.673Z,3.80
2017-05-22T15:10:20.181Z,4.93
2017-05-22T15:12:48.986Z,4.37
2017-05-22T15:15:17.479Z,5.82
2017-05-22T15:17:45.979Z,6.17
2017-05-22T15:20:14.523Z,3.23
2017-05-22T15:22:43.017Z,2.37
2017-05-22T15:25:11.521Z,4.28
2017-05-22T15:27:40.077Z,3.02
2017-05-22T15:30:08.578Z,3.53
2017-05-22T15:32:37.085Z,6.33
2017-05-22T15:35:05.632Z,4.50
2017-05-22T15:37:34.137Z,6.75
2017-05-22T15:40:02.639Z,9.00
2017-05-22T15:42:31.184Z,5.43
2017-05-22T15:44:59.688Z,5.70
2017-05-22T15:47:28.193Z,6.77
2017-05-22T15:49:56.748Z,8.15
2017-05-22T15:52:25.248Z,3.35
2017-05-22T15:54:53.749Z,2.93
2017-05-22T15:57:22.297Z,2.87
2017-05-22T15:59:50.796Z,5.60
2017-05-22T16:02:19.297Z,4.23
2017-05-22T16:04:47.851Z,4.13
2017-05-22T16:07:16.353Z,5.77
2017-05-22T16:09:44.850Z,2.87
2017-05-22T16:12:13.398Z,4.38
2017-05-22T16:14:41.905Z,2.52
2017-05-22T16:17:10.414Z,3.70
2017-05-22T16:19:38.956Z,2.83
2017-05-22T16:22:07.467Z,3.68
2017-05-22T16:24:35.968Z,7.83
2017-05-22T16:27:04.508Z,4.90
2017-05-22T16:29:33.020Z,4.88
2017-05-22T16:32:01.516Z,4.82
2017-05-22T16:34:30.060Z,3.08
2017-05-22T16:36:58.558Z,7.15
2017-05-22T16:39:27.065Z,10.12
2017-05-22T16:41:55.612Z,3.88
2017-05-22T16:44:24.113Z,5.62
2017-05-22T16:46:52.615Z,5.90
2017-05-22T16:49:21.225Z,3.28
2017-05-22T16:51:49.732Z,4.07
2017-05-22T16:54:18.234Z,6.13
2017-05-22T16:56:46.780Z,2.95
2017-05-22T16:59:15.280Z,5.07
2017-05-22T17:01:43.780Z,5.60
2017-05-22T17:04:12.333Z,5.23
2017-05-22T17:06:40.846Z,4.98
2017-05-22T17:09:09.356Z,6.47
2017-05-22T17:11:37.902Z,5.17
2017-05-22T17:14:06.402Z,3.47
2017-05-22T17:16:34.904Z,7.67
2017-05-22T17:19:03.444Z,6.60
2017-05-22T17:21:31.945Z,5.18
2017-05-22T17:24:00.444Z,4.00
2017-05-22T17:26:28.997Z,2.65
2017-05-22T17:28:58.392Z,5.90
2017-05-22T17:31:26.909Z,6.15
2017-05-22T17:33:55.463Z,3.97
2017-05-22T17:36:23.995Z,6.58
2017-05-22T17:38:52.549Z,5.88
2017-05-22T17:41:21.095Z,5.33
2017-05-22T17:43:58.580Z,4.28
2017-05-22T17:46:27.121Z,6.82
2017-05-22T17:48:55.614Z,3.65
2017-05-22T17:51:24.116Z,9.28
2017-05-22T17:53:52.665Z,3.35
2017-05-22T17:56:21.168Z,4.93
2017-05-22T17:58:49.685Z,4.08
2017-05-22T18:01:18.227Z,5.12
2017-05-22T18:03:46.728Z,6.87
2017-05-22T18:06:15.252Z,3.92
2017-05-22T18:08:43.793Z,4.38
2017-05-22T18:11:12.316Z,3.22
2017-05-22T18:13:40.816Z,2.90
2017-05-22T18:16:09.382Z,8.83
2017-05-22T18:18:37.888Z,6.47
2017-05-22T18:21:06.403Z,3.30
2017-05-22T18:23:34.949Z,5.20
2017-05-22T18:26:03.451Z,4.02
2017-05-22T18:28:31.958Z,7.00
2017-05-22T18:31:00.565Z,7.22
2017-05-22T18:33:29.767Z,7.15
2017-05-22T18:35:58.270Z,6.58
2017-05-22T18:38:26.812Z,3.65
2017-05-22T18:40:55.315Z,7.88
2017-05-22T18:43:23.912Z,5.45
2017-05-22T18:45:52.463Z,6.63
2017-05-22T18:48:21.005Z,6.68
2017-05-22T18:50:49.525Z,7.53
2017-05-22T18:53:18.068Z,5.22
2017-05-22T18:55:46.571Z,8.67
2017-05-22T18:58:15.540Z,6.28
2017-05-22T19:00:44.087Z,9.63
2017-05-22T19:03:12.583Z,7.55
2017-05-22T19:05:41.227Z,10.55
2017-05-22T19:08:09.908Z,4.88
2017-05-22T19:10:38.411Z,5.27
2017-05-22T19:13:06.907Z,6.45
2017-05-22T19:15:35.472Z,5.63
2017-05-22T19:18:03.980Z,6.90
2017-05-22T19:20:32.490Z,7.02
2017-05-22T19:23:01.037Z,5.08
2017-05-22T19:25:29.574Z,5.83
2017-05-22T19:27:58.099Z,8.42
2017-05-22T19:30:26.896Z,7.52
2017-05-22T19:32:55.397Z,4.80
2017-05-22T19:35:23.938Z,6.47
2017-05-22T19:37:52.562Z,7.82
2017-05-22T19:40:21.088Z,8.08
2017-05-22T19:42:50.519Z,5.20
2017-05-22T19:45:19.063Z,5.15
2017-05-22T19:47:51.298Z,8.88
2017-05-22T19:50:20.980Z,5.65
2017-05-22T19:52:49.612Z,5.53
2017-05-22T19:55:18.407Z,7.32
2017-05-22T19:57:47.548Z,5.67
2017-05-22T20:00:16.115Z,11.10
2017-05-22T20:02:48.445Z,5.32
2017-05-22T20:05:18.483Z,6.47
2017-05-22T20:07:48.079Z,5.33
2017-05-22T20:10:16.755Z,5.62
2017-05-22T20:12:47.392Z,5.93
2017-05-22T20:15:16.096Z,5.08
2017-05-22T20:17:44.600Z,5.05
2017-05-22T20:20:13.167Z,6.20
2017-05-22T20:22:41.684Z,5.60
2017-05-22T20:25:10.187Z,4.97
2017-05-22T20:27:38.739Z,5.58
2017-05-22T20:30:07.240Z,5.93
2017-05-22T20:32:35.742Z,9.22
2017-05-22T20:35:04.292Z,6.78
2017-05-22T20:37:32.854Z,5.77
2017-05-22T20:40:01.359Z,6.97
2017-05-22T20:42:29.900Z,10.62
2017-05-22T20:44:58.417Z,9.97
2017-05-22T20:47:26.920Z,11.30
2017-05-22T20:49:55.701Z,10.67
2017-05-22T20:52:24.212Z,6.72
2017-05-22T20:54:52.715Z,7.03
2017-05-22T20:57:21.264Z,7.05
2017-05-22T20:59:49.900Z,8.28
2017-05-22T21:02:18.413Z,9.48
2017-05-22T21:04:46.954Z,7.33
2017-05-22T21:07:15.460Z,24.52
2017-05-22T21:09:43.983Z,10.67
2017-05-22T21:12:12.523Z,7.95
2017-05-22T21:14:41.024Z,8.80
2017-05-22T21:17:09.536Z,12.02
2017-05-22T21:19:38.077Z,7.58
2017-05-22T21:22:06.577Z,8.57
2017-05-22T21:24:35.085Z,6.15
2017-05-22T21:27:03.630Z,6.52
2017-05-22T21:29:32.131Z,7.15
2017-05-22T21:32:00.635Z,8.60
2017-05-22T21:34:29.241Z,7.05
2017-05-22T21:36:57.741Z,8.22
2017-05-22T21:39:26.243Z,6.90
2017-05-22T21:41:54.788Z,12.08
2017-05-22T21:44:23.299Z,9.75
2017-05-22T21:46:51.803Z,10.23
2017-05-22T21:49:20.354Z,9.18
2017-05-22T21:51:48.850Z,7.47
2017-05-22T21:54:17.355Z,7.95
2017-05-22T21:56:45.891Z,7.63
2017-05-22T21:59:14.388Z,8.65
2017-05-22T22:01:42.887Z,7.28
2017-05-22T22:04:11.439Z,8.33
2017-05-22T22:06:39.947Z,20.45
2017-05-22T22:09:08.447Z,9.23
2017-05-22T22:11:37.001Z,8.53
2017-05-22T22:14:05.517Z,16.25
2017-05-22T22:16:34.023Z,8.48
2017-05-22T22:19:02.563Z,10.77
2017-05-22T22:21:31.064Z,9.70
2017-05-22T22:23:59.571Z,9.20
2017-05-22T22:26:28.114Z,11.67
2017-05-22T22:28:56.621Z,9.02
2017-05-22T22:31:25.130Z,8.03
2017-05-22T22:33:53.683Z,9.00
2017-05-22T22:36:22.193Z,11.27
2017-05-22T22:38:50.719Z,10.35
2017-05-22T22:41:19.295Z,9.25
2017-05-22T22:43:47.796Z,8.53
2017-05-22T22:46:16.297Z,7.68
2017-05-22T22:48:44.832Z,8.68
2017-05-22T22:51:13.334Z,9.28
2017-05-22T22:53:41.858Z,8.58
2017-05-22T22:56:10.410Z,8.00
2017-05-22T22:58:38.920Z,9.22
2017-05-22T23:01:07.483Z,8.70
2017-05-22T23:03:36.041Z,8.08
2017-05-22T23:06:04.547Z,8.72
2017-05-22T23:08:33.048Z,9.88
2017-05-22T23:11:01.586Z,9.87
2017-05-22T23:13:30.132Z,9.93
2017-05-22T23:15:58.639Z,9.45
2017-05-22T23:18:27.188Z,9.22
2017-05-22T23:20:55.689Z,9.92
2017-05-22T23:23:24.195Z,12.40
2017-05-22T23:25:52.741Z,17.07
2017-05-22T23:28:21.247Z,27.20
2017-05-22T23:30:49.759Z,18.90
2017-05-22T23:33:18.315Z,22.75
2017-05-22T23:35:46.823Z,20.75
2017-05-22T23:38:15.329Z,13.90
2017-05-22T23:40:43.907Z,14.02
2017-05-22T23:43:12.420Z,15.65
2017-05-22T23:45:40.927Z,13.60
2017-05-22T23:48:09.478Z,20.25
2017-05-22T23:50:37.988Z,18.62
2017-05-22T23:53:06.501Z,17.87
2017-05-22T23:55:35.050Z,14.00
2017-05-22T23:58:03.552Z,19.53
